Time;durP1;ratioP1;P1;durP2;ratioP2;P2;SDS_P1;SDS_P2;PMS_P1;PMS_P2;Temp;Humidity;BMP_temperature;BMP_pressure;BME280_temperature;BME280_humidity;BME280_pressure;Samples;Min_cycle;Max_cycle;Signal;HPM_P1;HPM_P2
2022/04/07 00:01:41;;;;;;;7.18;5.22;;;13.40;99.90;;;;;;5053342;28;20075;-74
2022/04/07 00:04:07;;;;;;;8.98;4.97;;;12.60;99.90;;;;;;5056860;28;20026;-72
2022/04/07 00:06:32;;;;;;;8.55;5.38;;;13.00;99.90;;;;;;5039616;28;20260;-74
2022/04/07 00:09:02;;;;;;;8.38;4.47;;;13.20;99.90;;;;;;5056475;28;20041;-74
2022/04/07 00:11:28;;;;;;;10.18;4.70;;;13.10;99.90;;;;;;5064146;28;20053;-73
2022/04/07 00:13:54;;;;;;;8.38;4.80;;;12.70;99.90;;;;;;5044059;28;20029;-71
2022/04/07 00:16:19;;;;;;;8.20;4.10;;;12.80;99.90;;;;;;5041621;28;20041;-74
2022/04/07 00:18:46;;;;;;;11.18;4.28;;;13.30;99.90;;;;;;5043273;28;20025;-75
2022/04/07 00:21:12;;;;;;;9.02;4.13;;;13.20;99.90;;;;;;5053128;28;20029;-74
2022/04/07 00:23:40;;;;;;;10.60;4.50;;;12.10;99.90;;;;;;5038807;28;20072;-74
2022/04/07 00:26:06;;;;;;;8.82;3.67;;;12.20;99.90;;;;;;5007528;28;20108;-73
2022/04/07 00:28:32;;;;;;;10.75;4.10;;;12.20;99.90;;;;;;5044809;28;20033;-76
2022/04/07 00:30:58;;;;;;;6.85;3.53;;;13.10;99.90;;;;;;5034405;28;20025;-74
2022/04/07 00:33:24;;;;;;;6.28;3.42;;;12.30;99.90;;;;;;5043406;28;20148;-74
2022/04/07 00:35:50;;;;;;;7.20;3.22;;;13.10;99.90;;;;;;5021397;28;20061;-74
2022/04/07 00:38:15;;;;;;;6.30;2.50;;;12.40;99.90;;;;;;5040995;28;20041;-74
2022/04/07 00:40:41;;;;;;;5.60;2.30;;;12.00;99.90;;;;;;5023896;28;20029;-75
2022/04/07 00:43:07;;;;;;;8.70;2.30;;;13.10;99.90;;;;;;5073646;28;20248;-73
2022/04/07 00:45:32;;;;;;;5.40;2.05;;;12.10;99.90;;;;;;5057099;28;20033;-76
2022/04/07 00:47:58;;;;;;;10.77;2.33;;;12.10;99.90;;;;;;5023959;28;20055;-75
2022/04/07 00:50:24;;;;;;;5.38;2.33;;;12.40;99.90;;;;;;5069804;28;20037;-74
2022/04/07 00:52:54;;;;;;;5.93;2.25;;;12.80;99.90;;;;;;5043023;28;20029;-76
2022/04/07 00:55:21;;;;;;;5.82;2.08;;;12.10;99.90;;;;;;5040284;28;20189;-76
2022/04/07 00:57:47;;;;;;;11.93;3.00;;;12.40;99.90;;;;;;5039300;28;20044;-74
2022/04/07 01:00:14;;;;;;;5.85;2.53;;;12.10;99.90;;;;;;5043654;28;20095;-72
2022/04/07 01:02:40;;;;;;;8.55;2.85;;;12.10;99.90;;;;;;5042221;28;20030;-72
2022/04/07 01:05:09;;;;;;;8.73;2.97;;;12.00;99.90;;;;;;5037703;28;20366;-74
2022/04/07 01:07:37;;;;;;;8.02;2.47;;;12.10;99.90;;;;;;5038430;28;20088;-73
2022/04/07 01:10:05;;;;;;;9.70;2.47;;;12.70;99.90;;;;;;5040305;28;20033;-75
2022/04/07 01:12:30;;;;;;;4.47;2.55;;;11.90;99.90;;;;;;5038954;28;20060;-75
2022/04/07 01:15:01;;;;;;;9.68;2.58;;;11.90;99.90;;;;;;5037551;28;20208;-73
2022/04/07 01:17:28;;;;;;;8.18;2.88;;;12.20;99.90;;;;;;5049450;28;20411;-74
2022/04/07 01:19:53;;;;;;;7.05;2.55;;;11.80;99.90;;;;;;5073501;28;20100;-74
2022/04/07 01:22:20;;;;;;;9.25;2.75;;;12.70;99.90;;;;;;5020634;28;20029;-74
2022/04/07 01:24:47;;;;;;;9.60;3.08;;;12.30;99.90;;;;;;5039977;28;20100;-74
2022/04/07 01:27:13;;;;;;;8.50;2.53;;;11.70;99.90;;;;;;5039216;28;20033;-75
2022/04/07 01:29:39;;;;;;;6.05;2.83;;;12.30;99.90;;;;;;5055164;28;20033;-77
2022/04/07 01:32:10;;;;;;;12.15;3.28;;;12.60;99.90;;;;;;5068310;28;20034;-76
2022/04/07 01:34:35;;;;;;;8.93;3.30;;;12.70;99.90;;;;;;5021525;28;20041;-72
2022/04/07 01:37:02;;;;;;;11.52;3.47;;;12.00;99.90;;;;;;5038271;28;20236;-72
2022/04/07 01:39:28;;;;;;;8.90;3.22;;;12.60;99.90;;;;;;5022089;28;20029;-73
2022/04/07 01:41:54;;;;;;;7.47;2.58;;;12.80;99.90;;;;;;5038593;28;20025;-75
2022/04/07 01:44:22;;;;;;;10.90;2.97;;;12.30;99.90;;;;;;5038695;28;20208;-73
2022/04/07 01:46:48;;;;;;;7.50;3.17;;;13.20;99.90;;;;;;5037913;28;20092;-73
2022/04/07 01:49:15;;;;;;;9.00;3.03;;;13.10;99.90;;;;;;5068926;28;20029;-74
2022/04/07 01:51:43;;;;;;;7.60;3.17;;;13.40;99.90;;;;;;5047615;28;20025;-73
2022/04/07 01:54:11;;;;;;;10.68;3.92;;;13.70;99.90;;;;;;5021846;28;20041;-74
2022/04/07 01:56:39;;;;;;;11.00;5.25;;;13.80;99.90;;;;;;5038315;28;20090;-74
2022/04/07 01:59:07;;;;;;;13.70;4.38;;;14.00;99.90;;;;;;5056117;28;20418;-73
2022/04/07 02:01:33;;;;;;;13.70;4.45;;;14.30;99.90;;;;;;5021724;28;20025;-74
2022/04/07 02:03:58;;;;;;;16.52;5.07;;;13.50;99.90;;;;;;5008380;28;20075;-72
2022/04/07 02:06:25;;;;;;;9.35;3.85;;;13.40;99.90;;;;;;5043019;28;20216;-75
2022/04/07 02:08:51;;;;;;;9.15;3.83;;;13.70;99.90;;;;;;5019520;28;20096;-72
2022/04/07 02:11:16;;;;;;;8.25;3.45;;;13.80;99.90;;;;;;5055165;28;20255;-75
2022/04/07 02:13:42;;;;;;;11.68;4.13;;;14.50;99.90;;;;;;5029851;28;20254;-76
2022/04/07 02:16:09;;;;;;;11.75;3.63;;;13.30;99.90;;;;;;5038062;28;20041;-74
2022/04/07 02:18:36;;;;;;;12.38;4.63;;;14.20;99.90;;;;;;5038408;28;20044;-75
2022/04/07 02:21:02;;;;;;;12.43;4.90;;;14.10;99.90;;;;;;5038612;28;20310;-74
2022/04/07 02:23:28;;;;;;;10.52;3.90;;;13.50;99.90;;;;;;5055736;28;20079;-76
2022/04/07 02:25:54;;;;;;;13.13;4.60;;;13.30;99.90;;;;;;5055961;28;20255;-74
2022/04/07 02:28:20;;;;;;;18.15;4.50;;;13.20;99.90;;;;;;5036937;28;20042;-73
2022/04/07 02:30:46;;;;;;;17.02;4.60;;;13.20;99.90;;;;;;5039659;28;20024;-73
2022/04/07 02:33:12;;;;;;;13.25;3.85;;;13.10;99.90;;;;;;5050494;28;20086;-73
2022/04/07 02:35:38;;;;;;;18.13;4.60;;;13.00;99.90;;;;;;5053400;28;20260;-73
2022/04/07 02:38:04;;;;;;;14.20;4.30;;;13.90;99.90;;;;;;5032167;28;20084;-72
2022/04/07 02:40:30;;;;;;;14.85;4.43;;;12.70;99.90;;;;;;5033712;28;20034;-75
2022/04/07 02:42:55;;;;;;;13.85;4.10;;;13.70;99.90;;;;;;5035136;28;20312;-74
2022/04/07 02:45:21;;;;;;;13.63;4.13;;;12.90;99.90;;;;;;5061306;28;20037;-74
2022/04/07 02:47:47;;;;;;;13.45;4.68;;;13.60;99.90;;;;;;5054747;28;20220;-75
2022/04/07 02:50:12;;;;;;;16.30;4.30;;;13.50;99.90;;;;;;5038650;28;20224;-73
2022/04/07 02:52:38;;;;;;;15.60;4.28;;;12.70;99.90;;;;;;5030646;28;20116;-73
2022/04/07 02:55:04;;;;;;;11.65;3.95;;;13.40;99.90;;;;;;5037904;28;20033;-76
2022/04/07 02:57:33;;;;;;;14.93;4.78;;;13.20;99.90;;;;;;5051636;28;20036;-71
2022/04/07 02:59:59;;;;;;;9.40;3.85;;;12.60;99.90;;;;;;5057565;28;20105;-74
2022/04/07 03:02:28;;;;;;;11.13;4.50;;;12.50;99.90;;;;;;5068661;28;20216;-75
2022/04/07 03:04:53;;;;;;;12.82;4.63;;;13.20;99.90;;;;;;5021102;28;20041;-73
2022/04/07 03:07:22;;;;;;;15.63;5.03;;;13.00;99.90;;;;;;5035435;28;20243;-75
2022/04/07 03:09:48;;;;;;;16.98;4.80;;;13.00;99.90;;;;;;5052693;28;20033;-73
2022/04/07 03:12:13;;;;;;;12.27;5.43;;;12.40;99.90;;;;;;5040324;28;20387;-74
2022/04/07 03:14:40;;;;;;;7.82;4.50;;;12.30;99.90;;;;;;5018525;28;20460;-72
2022/04/07 03:17:06;;;;;;;12.63;5.53;;;12.30;99.90;;;;;;5039248;28;20062;-74
2022/04/07 03:19:32;;;;;;;14.68;5.78;;;13.00;99.90;;;;;;5040457;28;20029;-73
2022/04/07 03:21:58;;;;;;;11.68;4.88;;;12.30;99.90;;;;;;5025507;28;20124;-72
2022/04/07 03:24:27;;;;;;;12.05;5.18;;;13.10;99.90;;;;;;5042459;28;20041;-71
2022/04/07 03:26:53;;;;;;;15.43;4.63;;;12.30;99.90;;;;;;5063082;28;20103;-72
2022/04/07 03:29:20;;;;;;;11.02;4.70;;;12.40;99.90;;;;;;5053636;28;20037;-70
2022/04/07 03:31:48;;;;;;;9.20;4.30;;;13.10;99.90;;;;;;5048067;28;20085;-72
2022/04/07 03:34:14;;;;;;;12.77;4.93;;;12.40;99.90;;;;;;5040933;28;20280;-70
2022/04/07 03:36:40;;;;;;;14.95;5.03;;;12.90;99.90;;;;;;5039699;28;20049;-73
2022/04/07 03:39:06;;;;;;;14.65;4.53;;;13.20;99.90;;;;;;5030222;28;20041;-72
2022/04/07 03:41:32;;;;;;;14.93;4.28;;;12.50;99.90;;;;;;5073943;28;20308;-72
2022/04/07 03:43:58;;;;;;;13.25;4.60;;;12.90;99.90;;;;;;5040018;28;20071;-74
2022/04/07 03:46:24;;;;;;;10.88;4.25;;;13.10;99.90;;;;;;5041527;28;20028;-75
2022/04/07 03:48:50;;;;;;;11.38;4.05;;;12.30;99.90;;;;;;5051072;28;20025;-74
2022/04/07 03:51:17;;;;;;;7.93;3.97;;;13.20;99.90;;;;;;5049071;28;20235;-73
2022/04/07 03:53:43;;;;;;;9.77;3.75;;;12.80;99.90;;;;;;5056783;28;20104;-73
2022/04/07 03:56:08;;;;;;;9.65;3.00;;;13.10;99.90;;;;;;5040613;28;20036;-74
2022/04/07 03:58:34;;;;;;;12.43;3.33;;;12.20;99.90;;;;;;5046178;28;20037;-71
2022/04/07 04:01:00;;;;;;;8.60;3.40;;;12.20;99.90;;;;;;5024436;28;20030;-74
2022/04/07 04:03:25;;;;;;;8.25;3.50;;;12.80;99.90;;;;;;5056890;28;20029;-74
2022/04/07 04:05:51;;;;;;;8.18;3.08;;;12.70;99.90;;;;;;5024927;28;20038;-73
2022/04/07 04:08:17;;;;;;;12.38;3.20;;;12.60;99.90;;;;;;5073681;28;20262;-72
2022/04/07 04:10:42;;;;;;;9.15;2.88;;;12.40;99.90;;;;;;5065850;28;20057;-76
2022/04/07 04:13:08;;;;;;;13.82;3.28;;;11.80;99.90;;;;;;5045032;28;20033;-72
2022/04/07 04:15:34;;;;;;;12.15;3.25;;;11.90;99.90;;;;;;5035523;28;20033;-74
2022/04/07 04:17:59;;;;;;;10.35;3.50;;;11.70;99.90;;;;;;5054106;28;20323;-73
2022/04/07 04:20:25;;;;;;;16.17;3.53;;;11.70;99.90;;;;;;5023052;28;20033;-72
2022/04/07 04:22:51;;;;;;;16.10;3.92;;;11.60;99.90;;;;;;5041270;28;20041;-71
2022/04/07 04:25:17;;;;;;;12.13;2.95;;;12.00;99.90;;;;;;5007831;28;20030;-72
2022/04/07 04:27:43;;;;;;;13.48;4.35;;;12.40;99.90;;;;;;5056272;28;20025;-71
2022/04/07 04:30:09;;;;;;;12.93;3.45;;;12.20;99.90;;;;;;5039623;28;20373;-72
2022/04/07 04:32:35;;;;;;;17.23;4.10;;;12.50;99.90;;;;;;5041004;28;20037;-72
2022/04/07 04:35:02;;;;;;;17.10;4.55;;;12.50;99.90;;;;;;5025249;28;20108;-75
2022/04/07 04:37:27;;;;;;;12.60;3.53;;;11.70;99.90;;;;;;5056708;28;20040;-71
2022/04/07 04:39:54;;;;;;;13.07;3.10;;;12.70;99.90;;;;;;5023062;28;20259;-74
2022/04/07 04:42:20;;;;;;;12.35;4.10;;;12.60;99.90;;;;;;5034352;28;20044;-72
2022/04/07 04:44:46;;;;;;;13.18;3.90;;;12.10;99.90;;;;;;5044287;28;20246;-73
2022/04/07 04:47:13;;;;;;;10.00;3.42;;;12.70;99.90;;;;;;5057562;28;20026;-75
2022/04/07 04:49:42;;;;;;;14.02;3.22;;;12.60;99.90;;;;;;5055770;28;20036;-74
2022/04/07 04:52:09;;;;;;;17.63;4.15;;;12.40;99.90;;;;;;5042365;28;20033;-75
2022/04/07 04:54:35;;;;;;;20.52;4.43;;;11.70;99.90;;;;;;5023382;28;20033;-74
2022/04/07 04:57:00;;;;;;;14.90;3.63;;;11.80;99.90;;;;;;5056396;28;20370;-72
2022/04/07 04:59:26;;;;;;;13.32;3.25;;;11.80;99.90;;;;;;5040265;28;20037;-73
2022/04/07 05:01:52;;;;;;;12.27;3.20;;;12.00;99.90;;;;;;5040559;28;20043;-73
2022/04/07 05:04:17;;;;;;;13.30;3.03;;;11.60;99.90;;;;;;5038866;28;20037;-72
2022/04/07 05:06:43;;;;;;;17.67;4.20;;;11.60;99.90;;;;;;5038315;28;20022;-75
2022/04/07 05:09:09;;;;;;;20.25;4.57;;;11.40;99.90;;;;;;5055675;28;20072;-72
2022/04/07 05:11:34;;;;;;;12.75;3.85;;;11.70;99.90;;;;;;5037402;28;20096;-72
2022/04/07 05:14:01;;;;;;;13.48;3.92;;;12.00;99.90;;;;;;5038928;28;20372;-72
2022/04/07 05:16:26;;;;;;;14.18;3.60;;;11.30;99.90;;;;;;5039120;28;20103;-71
2022/04/07 05:18:52;;;;;;;15.23;3.75;;;11.90;99.90;;;;;;5021715;28;20041;-73
2022/04/07 05:21:18;;;;;;;12.93;4.10;;;11.50;99.90;;;;;;5040334;28;20034;-72
2022/04/07 05:23:44;;;;;;;14.63;4.07;;;12.20;99.90;;;;;;5038475;28;20029;-76
2022/04/07 05:26:12;;;;;;;11.55;3.13;;;11.50;99.90;;;;;;5037996;28;20029;-75
2022/04/07 05:28:41;;;;;;;9.43;2.28;;;11.30;99.90;;;;;;5055025;28;20033;-73
2022/04/07 05:31:07;;;;;;;10.48;2.30;;;12.30;99.90;;;;;;5011775;28;20109;-74
2022/04/07 05:33:33;;;;;;;10.00;2.47;;;10.60;99.90;;;;;;5020395;28;20227;-79
2022/04/07 05:35:59;;;;;;;8.25;2.60;;;11.60;99.90;;;;;;5054671;28;20041;-78
2022/04/07 05:38:24;;;;;;;5.88;1.65;;;11.80;99.90;;;;;;5030273;28;20033;-74
2022/04/07 05:40:50;;;;;;;5.35;1.20;;;12.60;99.90;;;;;;5022611;28;20335;-72
2022/04/07 05:43:16;;;;;;;5.13;1.50;;;12.00;99.90;;;;;;5056358;28;20025;-72
2022/04/07 05:45:44;;;;;;;3.65;1.13;;;10.40;99.90;;;;;;5038434;28;20033;-72
2022/04/07 05:48:10;;;;;;;4.35;1.25;;;10.20;99.90;;;;;;5042166;28;20024;-71
2022/04/07 05:50:36;;;;;;;4.15;1.38;;;10.70;99.90;;;;;;5040079;28;20375;-74
2022/04/07 05:53:02;;;;;;;3.45;1.20;;;10.10;99.90;;;;;;5038569;28;20065;-77
2022/04/07 05:55:27;;;;;;;5.60;1.30;;;11.60;99.90;;;;;;5036659;28;20239;-74
2022/04/07 05:57:54;;;;;;;6.13;1.40;;;11.70;99.90;;;;;;5020957;28;20021;-76
2022/04/07 06:00:20;;;;;;;3.58;1.30;;;10.80;99.90;;;;;;5037250;28;20041;-76
2022/04/07 06:02:47;;;;;;;5.00;1.30;;;9.80;99.90;;;;;;5038179;28;20018;-75
2022/04/07 06:05:18;;;;;;;5.68;1.52;;;12.10;99.90;;;;;;5052263;28;20045;-75
2022/04/07 06:07:44;;;;;;;3.00;1.25;;;10.20;99.90;;;;;;5050808;28;20308;-72
2022/04/07 06:10:10;;;;;;;2.55;1.10;;;12.00;99.90;;;;;;5038298;28;20039;-75
2022/04/07 06:12:38;;;;;;;5.22;1.38;;;10.20;99.90;;;;;;5039008;28;20040;-73
2022/04/07 06:15:04;;;;;;;5.53;1.48;;;12.00;99.90;;;;;;5038669;28;20056;-77
2022/04/07 06:17:35;;;;;;;4.10;1.35;;;11.10;99.90;;;;;;5006332;28;20326;-76
2022/04/07 06:20:01;;;;;;;8.73;2.75;;;12.20;99.90;;;;;;5023560;28;20035;-73
2022/04/07 06:22:27;;;;;;;6.00;1.67;;;11.60;99.90;;;;;;5039596;28;20083;-75
2022/04/07 06:24:53;;;;;;;7.13;1.52;;;12.30;99.90;;;;;;5039786;28;20060;-77
2022/04/07 06:27:18;;;;;;;4.38;1.50;;;11.90;99.90;;;;;;5055640;28;20034;-75
2022/04/07 06:29:44;;;;;;;7.53;1.40;;;11.80;99.90;;;;;;5039835;28;20060;-74
2022/04/07 06:32:10;;;;;;;2.38;1.10;;;11.60;99.90;;;;;;5039973;28;20079;-78
2022/04/07 06:34:36;;;;;;;6.40;1.40;;;10.80;99.90;;;;;;5038436;28;20065;-76
2022/04/07 06:37:02;;;;;;;3.30;1.00;;;10.70;99.90;;;;;;5072699;28;20064;-79
2022/04/07 06:39:27;;;;;;;2.58;0.90;;;11.90;99.90;;;;;;5073436;28;20069;-75
2022/04/07 06:41:53;;;;;;;4.70;1.33;;;12.00;99.90;;;;;;5023462;28;20211;-77
2022/04/07 06:44:19;;;;;;;2.75;1.08;;;10.20;99.90;;;;;;5039562;28;20036;-76
2022/04/07 06:46:45;;;;;;;5.68;1.33;;;12.00;99.90;;;;;;5040279;28;20072;-73
2022/04/07 06:49:11;;;;;;;2.72;0.90;;;12.10;99.90;;;;;;5022537;28;20040;-77
2022/04/07 06:51:37;;;;;;;2.67;0.90;;;11.10;99.90;;;;;;5039808;28;20073;-75
2022/04/07 06:54:03;;;;;;;4.70;1.00;;;12.00;99.90;;;;;;5043937;28;20041;-76
2022/04/07 06:56:28;;;;;;;2.03;0.80;;;10.30;99.90;;;;;;5026013;28;20220;-72
2022/04/07 06:58:54;;;;;;;3.70;0.90;;;10.50;99.90;;;;;;5041250;28;20045;-76
2022/04/07 07:01:21;;;;;;;3.22;1.00;;;11.90;99.90;;;;;;5026712;28;20040;-75
2022/04/07 07:03:46;;;;;;;1.48;0.75;;;12.30;99.90;;;;;;5043789;28;20042;-75
2022/04/07 07:06:12;;;;;;;5.38;1.63;;;10.50;99.90;;;;;;5027603;28;20155;-74
2022/04/07 07:08:38;;;;;;;3.08;1.10;;;10.60;99.90;;;;;;5058436;28;20041;-76
2022/04/07 07:11:03;;;;;;;3.70;1.10;;;12.40;99.90;;;;;;5043195;28;20100;-74
2022/04/07 07:13:29;;;;;;;4.03;1.20;;;12.50;99.90;;;;;;5042535;28;20075;-74
2022/04/07 07:15:55;;;;;;;4.70;0.90;;;10.90;99.90;;;;;;5028087;28;20312;-72
2022/04/07 07:18:21;;;;;;;2.17;0.98;;;10.60;99.90;;;;;;5041617;28;20036;-74
2022/04/07 07:20:47;;;;;;;2.55;1.00;;;11.30;99.90;;;;;;5042843;28;20049;-74
2022/04/07 07:23:13;;;;;;;3.35;1.20;;;12.30;99.90;;;;;;5043189;28;20037;-74
2022/04/07 07:25:39;;;;;;;4.55;1.50;;;12.20;99.90;;;;;;5042623;28;20395;-76
2022/04/07 07:28:05;;;;;;;6.05;1.73;;;12.20;99.90;;;;;;5041592;28;20109;-75
2022/04/07 07:30:31;;;;;;;6.00;2.38;;;12.50;99.90;;;;;;5041463;28;20315;-73
2022/04/07 07:32:58;;;;;;;3.10;1.40;;;11.80;99.90;;;;;;5043517;28;20087;-72
2022/04/07 07:35:25;;;;;;;4.07;1.30;;;12.30;99.90;;;;;;5042456;28;20354;-72
2022/04/07 07:37:53;;;;;;;3.03;1.15;;;10.50;99.90;;;;;;5076683;28;20236;-74
2022/04/07 07:40:21;;;;;;;3.85;0.77;;;10.60;99.90;;;;;;5043248;28;20034;-73
2022/04/07 07:42:54;;;;;;;6.15;1.15;;;10.80;99.90;;;;;;5043362;28;20246;-74
2022/04/07 07:45:20;;;;;;;2.67;0.90;;;11.90;99.90;;;;;;5042444;28;20311;-76
2022/04/07 07:47:46;;;;;;;4.80;1.55;;;12.20;99.90;;;;;;5058529;28;20032;-75
2022/04/07 07:50:12;;;;;;;4.18;1.30;;;10.50;99.90;;;;;;5042489;28;20279;-74
2022/04/07 07:52:38;;;;;;;3.75;1.10;;;10.60;99.90;;;;;;5041832;28;20045;-72
2022/04/07 07:55:04;;;;;;;2.65;1.10;;;11.00;99.90;;;;;;5060674;28;20317;-72
2022/04/07 07:57:30;;;;;;;5.65;1.10;;;10.50;99.90;;;;;;5042278;28;20049;-71
2022/04/07 07:59:57;;;;;;;6.75;1.13;;;10.70;99.90;;;;;;5041071;28;20079;-72
2022/04/07 08:02:23;;;;;;;1.90;0.68;;;11.90;99.90;;;;;;5008697;28;20231;-72
2022/04/07 08:04:48;;;;;;;1.92;0.90;;;11.60;99.90;;;;;;5024231;28;20425;-72
2022/04/07 08:07:14;;;;;;;2.30;0.95;;;11.20;99.90;;;;;;5059788;28;20029;-74
2022/04/07 08:09:43;;;;;;;6.55;2.00;;;11.20;99.90;;;;;;5024892;28;20030;-72
2022/04/07 08:12:09;;;;;;;2.55;1.17;;;11.00;99.90;;;;;;5041107;28;20029;-74
2022/04/07 08:14:35;;;;;;;3.17;1.27;;;9.80;99.90;;;;;;5024783;28;20059;-73
2022/04/07 08:17:01;;;;;;;3.67;1.00;;;9.60;99.90;;;;;;5041797;28;20025;-71
2022/04/07 08:19:27;;;;;;;3.08;1.45;;;10.80;99.90;;;;;;5041327;28;20079;-70
2022/04/07 08:21:53;;;;;;;2.47;1.05;;;10.50;99.90;;;;;;5041814;28;20037;-70
2022/04/07 08:24:20;;;;;;;4.57;0.95;;;9.20;99.90;;;;;;5042735;28;20045;-70
2022/04/07 08:26:46;;;;;;;5.38;1.20;;;10.20;99.90;;;;;;5058187;28;20041;-71
2022/04/07 08:29:12;;;;;;;3.65;0.98;;;9.00;99.90;;;;;;5042455;28;20037;-73
2022/04/07 08:31:38;;;;;;;5.05;1.27;;;9.00;99.90;;;;;;5039479;28;20044;-73
2022/04/07 08:34:03;;;;;;;3.58;1.00;;;9.20;99.90;;;;;;5075121;28;20021;-70
2022/04/07 08:36:29;;;;;;;2.83;1.15;;;9.80;99.90;;;;;;5072119;28;20053;-72
2022/04/07 08:38:55;;;;;;;4.63;1.10;;;9.80;99.90;;;;;;5042175;28;20307;-70
2022/04/07 08:41:21;;;;;;;4.70;1.25;;;9.90;99.90;;;;;;5042123;28;20259;-71
2022/04/07 08:43:47;;;;;;;4.95;1.20;;;9.10;99.90;;;;;;5024658;28;20029;-72
2022/04/07 08:46:13;;;;;;;5.05;1.10;;;9.30;99.90;;;;;;5040018;28;20339;-72
2022/04/07 08:48:43;;;;;;;5.38;1.08;;;10.10;99.90;;;;;;5041163;28;20098;-72
2022/04/07 08:51:12;;;;;;;4.30;1.23;;;10.20;99.90;;;;;;5074828;28;20032;-72
2022/04/07 08:53:39;;;;;;;3.58;1.15;;;10.40;99.90;;;;;;5040429;28;20294;-73
2022/04/07 08:56:07;;;;;;;2.45;1.20;;;9.80;99.90;;;;;;5025339;28;20044;-70
2022/04/07 08:58:33;;;;;;;4.65;0.90;;;10.20;99.90;;;;;;5024298;28;20100;-72
2022/04/07 09:01:04;;;;;;;4.10;1.20;;;10.70;99.90;;;;;;5041779;28;20032;-71
2022/04/07 09:03:33;;;;;;;9.27;1.75;;;10.40;99.90;;;;;;5009995;28;20360;-72
2022/04/07 09:06:01;;;;;;;3.33;0.95;;;9.90;99.90;;;;;;5024034;28;20029;-73
2022/04/07 09:08:35;;;;;;;5.18;1.10;;;10.20;99.90;;;;;;5041593;28;20044;-72
2022/04/07 09:11:03;;;;;;;3.80;1.00;;;10.60;99.90;;;;;;5025440;28;20034;-72
2022/04/07 09:13:38;;;;;;;6.72;1.20;;;10.20;99.90;;;;;;5040701;28;20059;-71
2022/04/07 09:16:17;;;;;;;4.00;1.05;;;10.70;99.90;;;;;;5023580;28;20073;-73
2022/04/07 09:18:44;;;;;;;5.63;1.60;;;10.40;99.90;;;;;;5036857;28;20230;-72
2022/04/07 09:21:31;;;;;;;6.88;1.50;;;10.60;99.90;;;;;;5014983;28;20056;-70
2022/04/07 09:23:58;;;;;;;4.45;1.38;;;10.90;99.90;;;;;;5034135;28;20037;-74
2022/04/07 09:26:24;;;;;;;6.18;1.75;;;10.40;99.90;;;;;;5048049;28;20320;-72
2022/04/07 09:28:57;;;;;;;9.68;1.77;;;10.20;99.90;;;;;;5050065;28;20084;-73
2022/04/07 09:31:24;;;;;;;4.35;1.50;;;10.90;99.90;;;;;;5028942;28;20280;-72
2022/04/07 09:33:54;;;;;;;7.03;1.40;;;10.40;99.90;;;;;;5033310;28;20041;-73
2022/04/07 09:36:21;;;;;;;5.75;1.20;;;10.10;99.90;;;;;;5016795;28;20159;-73
2022/04/07 09:38:52;;;;;;;7.97;1.55;;;11.00;99.90;;;;;;5033521;28;20046;-70
2022/04/07 09:41:19;;;;;;;7.32;1.50;;;10.90;99.90;;;;;;5033889;28;20048;-72
2022/04/07 09:43:47;;;;;;;5.28;1.52;;;11.20;99.90;;;;;;5065984;28;20567;-73
2022/04/07 09:46:21;;;;;;;8.00;1.50;;;10.90;99.90;;;;;;5012087;28;20047;-72
2022/04/07 09:49:06;;;;;;;6.85;1.52;;;10.50;99.90;;;;;;5066044;28;20099;-71
2022/04/07 09:51:45;;;;;;;5.88;1.75;;;10.10;99.90;;;;;;5016247;28;20087;-73
2022/04/07 09:54:12;;;;;;;7.75;1.77;;;10.30;99.90;;;;;;5033785;28;20037;-72
2022/04/07 09:56:38;;;;;;;7.85;1.50;;;10.40;99.90;;;;;;5048922;28;20045;-74
2022/04/07 09:59:08;;;;;;;4.85;1.40;;;10.00;99.90;;;;;;5034180;28;20335;-72
2022/04/07 10:01:38;;;;;;;5.82;1.58;;;10.60;99.90;;;;;;5016348;28;20026;-74
2022/04/07 10:04:05;;;;;;;4.75;1.63;;;10.50;99.90;;;;;;5017288;28;20251;-75
2022/04/07 10:06:37;;;;;;;7.57;1.83;;;10.50;99.90;;;;;;5034497;28;20034;-71
2022/04/07 10:09:07;;;;;;;6.72;1.73;;;10.40;99.90;;;;;;5032474;28;20399;-72
2022/04/07 10:11:33;;;;;;;6.53;1.23;;;10.50;99.90;;;;;;5031483;28;20079;-71
2022/04/07 10:13:59;;;;;;;7.22;1.88;;;10.40;99.90;;;;;;5033573;28;20072;-71
2022/04/07 10:16:32;;;;;;;8.68;1.80;;;9.80;99.90;;;;;;5015623;28;20037;-72
2022/04/07 10:19:05;;;;;;;6.05;1.63;;;10.10;99.90;;;;;;4996118;28;20034;-73
2022/04/07 10:22:01;;;;;;;7.95;1.40;;;10.60;99.90;;;;;;5040178;28;20041;-72
2022/04/07 10:24:33;;;;;;;;;;;11.40;99.90;;;;;;5013493;28;20105;-72
2022/04/07 10:27:08;;;;;;;9.45;2.35;;;11.70;99.90;;;;;;5051539;28;19963;-73
2022/04/07 10:29:34;;;;;;;5.88;1.50;;;11.20;99.90;;;;;;5052726;28;20049;-74
2022/04/07 10:32:21;;;;;;;6.00;1.70;;;11.20;99.90;;;;;;5019607;28;20064;-71
2022/04/07 10:34:58;;;;;;;5.10;1.42;;;10.10;99.90;;;;;;5035745;28;20045;-71
2022/04/07 10:37:43;;;;;;;5.75;1.58;;;9.40;99.90;;;;;;5037080;28;20065;-75
2022/04/07 10:40:44;;;;;;;;;;;8.80;99.90;;;;;;5068667;28;20366;-73
2022/04/07 10:43:22;;;;;;;4.07;1.38;;;9.70;99.90;;;;;;5006151;28;19921;-72
2022/04/07 10:46:06;;;;;;;7.38;1.48;;;10.10;99.90;;;;;;5069811;28;20037;-74
2022/04/07 10:49:00;;;;;;;7.47;1.67;;;9.70;99.90;;;;;;5051900;28;20294;-74
2022/04/07 10:51:49;;;;;;;8.07;1.77;;;10.50;99.90;;;;;;5000858;28;20060;-75
2022/04/07 10:54:15;;;;;;;4.32;1.40;;;10.50;99.90;;;;;;5069466;28;20037;-71
2022/04/07 10:56:52;;;;;;;6.57;1.67;;;10.00;99.90;;;;;;5020611;28;20049;-74
2022/04/07 10:59:19;;;;;;;11.63;2.20;;;9.90;99.90;;;;;;5027045;28;20044;-72
2022/04/07 11:01:57;;;;;;;8.75;1.80;;;9.90;99.90;;;;;;5025844;28;20163;-75
2022/04/07 11:04:23;;;;;;;5.03;1.88;;;9.50;99.90;;;;;;5023488;28;20041;-75
2022/04/07 11:07:07;;;;;;;5.13;1.40;;;9.40;99.90;;;;;;5036883;28;20041;-75
2022/04/07 11:09:55;;;;;;;6.18;1.80;;;9.30;99.90;;;;;;5036046;28;20091;-73
2022/04/07 11:12:32;;;;;;;9.32;2.20;;;9.90;99.90;;;;;;5050937;28;20571;-74
2022/04/07 11:15:03;;;;;;;7.15;2.10;;;9.80;99.90;;;;;;5036821;28;20045;-74
2022/04/07 11:17:41;;;;;;;12.95;1.92;;;10.40;99.90;;;;;;5019679;28;20041;-73
2022/04/07 11:20:23;;;;;;;5.32;1.52;;;10.60;99.90;;;;;;5019864;28;20048;-73
2022/04/07 11:23:08;;;;;;;10.55;2.15;;;10.50;99.90;;;;;;5017923;28;20069;-72
2022/04/07 11:25:35;;;;;;;8.65;2.30;;;11.20;99.90;;;;;;5019153;28;20099;-71
2022/04/07 11:28:14;;;;;;;5.35;1.70;;;11.20;99.90;;;;;;5020406;28;20080;-74
2022/04/07 11:30:50;;;;;;;11.95;2.65;;;11.70;99.90;;;;;;5034527;28;20384;-74
2022/04/07 11:35:59;;;;;;;11.80;2.63;;;11.30;99.90;;;;;;5035585;28;20080;-73
2022/04/07 11:38:36;;;;;;;12.60;2.35;;;11.10;99.90;;;;;;5036105;28;20049;-73
2022/04/07 11:41:10;;;;;;;8.93;2.35;;;11.30;99.90;;;;;;5053549;28;20071;-72
2022/04/07 11:43:38;;;;;;;9.57;1.95;;;11.70;99.90;;;;;;5068887;28;20128;-74
2022/04/07 11:46:04;;;;;;;6.20;1.90;;;11.30;99.90;;;;;;5036649;28;20116;-73
2022/04/07 11:48:32;;;;;;;8.35;2.42;;;10.90;99.90;;;;;;5036027;28;20045;-74
2022/04/07 11:51:00;;;;;;;9.40;2.22;;;10.90;99.90;;;;;;5052104;28;20041;-71
2022/04/07 11:53:35;;;;;;;8.07;1.75;;;10.60;99.90;;;;;;5019122;28;20033;-72
2022/04/07 11:56:17;;;;;;;;;;;10.50;99.90;;;;;;5020107;28;20037;-73
2022/04/07 11:59:03;;;;;;;15.88;3.03;;;10.80;99.90;;;;;;5002580;28;19927;-74
2022/04/07 12:01:29;;;;;;;10.15;2.30;;;10.60;99.90;;;;;;5018604;28;20227;-74
2022/04/07 12:04:00;;;;;;;8.75;2.30;;;10.50;99.90;;;;;;5035235;28;20229;-74
2022/04/07 12:06:31;;;;;;;11.32;2.40;;;10.90;99.90;;;;;;5035682;28;20052;-75
2022/04/07 12:09:01;;;;;;;8.30;1.70;;;10.70;99.90;;;;;;5035340;28;20041;-73
2022/04/07 12:11:30;;;;;;;8.63;2.00;;;10.60;99.90;;;;;;5059120;28;20236;-72
2022/04/07 12:13:57;;;;;;;8.95;1.67;;;10.80;99.90;;;;;;5033759;28;20386;-72
2022/04/07 12:16:25;;;;;;;7.47;2.00;;;10.80;99.90;;;;;;5066390;28;20049;-73
2022/04/07 12:18:56;;;;;;;9.57;1.90;;;10.80;99.90;;;;;;5020551;28;20042;-73
2022/04/07 12:21:23;;;;;;;9.25;2.63;;;11.20;99.90;;;;;;5034544;28;20038;-74
2022/04/07 12:24:04;;;;;;;6.90;1.70;;;11.10;99.90;;;;;;5034098;28;20048;-73
2022/04/07 12:26:41;;;;;;;8.82;2.00;;;10.70;99.90;;;;;;5053748;28;20305;-73
2022/04/07 12:29:08;;;;;;;9.65;2.00;;;10.80;99.90;;;;;;5063788;28;20045;-73
2022/04/07 12:31:34;;;;;;;10.15;2.47;;;10.80;99.90;;;;;;5033950;28;20263;-74
2022/04/07 12:34:13;;;;;;;6.13;1.80;;;10.70;99.90;;;;;;5002688;28;20204;-75
2022/04/07 12:36:40;;;;;;;13.60;2.15;;;10.40;99.90;;;;;;5035017;28;20167;-73
2022/04/07 12:39:15;;;;;;;5.88;1.50;;;10.00;99.90;;;;;;5035689;28;20348;-74
2022/04/07 12:42:04;;;;;;;;;;;;;;;;;;;;;
2022/04/07 12:44:30;;;;;;;2.55;1.08;;;8.50;99.90;;;;;;5067388;28;20259;-73
2022/04/07 12:46:57;;;;;;;6.88;1.48;;;9.30;99.90;;;;;;5034853;28;20037;-74
2022/04/07 12:49:26;;;;;;;11.85;1.70;;;9.20;99.90;;;;;;5035227;28;20223;-72
2022/04/07 12:52:07;;;;;;;7.03;1.75;;;9.70;99.90;;;;;;5034120;28;20135;-75
2022/04/07 12:54:34;;;;;;;8.65;2.15;;;10.50;99.90;;;;;;5051631;28;20347;-72